Time;durP1;ratioP1;P1;durP2;ratioP2;P2;SDS_P1;SDS_P2;PMS_P1;PMS_P2;Temp;Humidity;BMP_temperature;BMP_pressure;BME280_temperature;BME280_humidity;BME280_pressure;Samples;Min_cycle;Max_cycle;Signal;HPM_P1;HPM_P2
2023/09/30 00:00:26;;;;;;;14.30;3.50;;;13.30;99.90;;;;;;5064166;28;20282;-45
2023/09/30 00:02:53;;;;;;;13.27;3.17;;;13.20;99.90;;;;;;5061366;28;20217;-47
2023/09/30 00:05:21;;;;;;;8.63;3.03;;;13.20;99.90;;;;;;5058099;28;20195;-46
2023/09/30 00:07:49;;;;;;;8.17;3.57;;;13.20;99.90;;;;;;5060005;28;20303;-44
2023/09/30 00:10:16;;;;;;;12.27;4.13;;;13.20;99.90;;;;;;5063039;28;20264;-45
2023/09/30 00:12:43;;;;;;;7.27;3.10;;;13.20;99.90;;;;;;5029234;28;20202;-44
2023/09/30 00:15:11;;;;;;;8.00;2.73;;;13.20;99.90;;;;;;5060249;28;20204;-47
2023/09/30 00:17:37;;;;;;;11.03;3.67;;;13.20;99.90;;;;;;5060927;28;20637;-47
2023/09/30 00:20:05;;;;;;;10.33;3.30;;;13.20;99.90;;;;;;5060783;28;20264;-47
2023/09/30 00:22:32;;;;;;;13.03;3.20;;;13.20;99.90;;;;;;5059684;28;20283;-47
2023/09/30 00:25:01;;;;;;;12.00;3.47;;;13.10;99.90;;;;;;5062340;28;20872;-44
2023/09/30 00:27:27;;;;;;;13.97;4.30;;;13.10;99.90;;;;;;5072277;28;20209;-47
2023/09/30 00:29:55;;;;;;;10.63;3.27;;;13.10;99.90;;;;;;5022668;28;20279;-45
2023/09/30 00:32:21;;;;;;;14.70;3.13;;;13.10;99.90;;;;;;5069592;28;20186;-46
2023/09/30 00:34:48;;;;;;;7.43;3.00;;;13.10;99.90;;;;;;5067273;28;20210;-47
2023/09/30 00:37:16;;;;;;;10.37;3.50;;;13.10;99.90;;;;;;5067495;28;20226;-44
2023/09/30 00:39:44;;;;;;;10.17;3.60;;;13.10;99.90;;;;;;5066496;28;20260;-44
2023/09/30 00:42:12;;;;;;;8.83;3.03;;;13.10;99.90;;;;;;5066385;28;20702;-48
2023/09/30 00:44:39;;;;;;;10.63;3.37;;;13.10;99.90;;;;;;5034349;28;20213;-45
2023/09/30 00:47:08;;;;;;;11.30;3.17;;;13.00;99.90;;;;;;5054095;28;20225;-48
2023/09/30 00:49:35;;;;;;;8.73;3.33;;;13.00;99.90;;;;;;5063016;28;20230;-48
2023/09/30 00:52:03;;;;;;;9.83;3.33;;;13.00;99.90;;;;;;5060813;28;20442;-46
2023/09/30 00:54:31;;;;;;;8.83;3.17;;;13.00;99.90;;;;;;5063391;28;20191;-45
2023/09/30 00:57:00;;;;;;;13.93;3.27;;;13.00;99.90;;;;;;5057845;28;20291;-46
2023/09/30 00:59:32;;;;;;;9.77;3.37;;;13.00;99.90;;;;;;5034733;28;20672;-46
2023/09/30 01:02:01;;;;;;;9.53;3.87;;;13.00;99.90;;;;;;5056078;28;20906;-44
2023/09/30 01:04:28;;;;;;;8.10;3.27;;;13.00;99.90;;;;;;5066609;28;20362;-50
2023/09/30 01:06:57;;;;;;;9.00;3.10;;;12.90;99.90;;;;;;5063929;28;20212;-47
2023/09/30 01:09:24;;;;;;;10.20;4.00;;;12.90;99.90;;;;;;5066364;28;20190;-44
2023/09/30 01:11:52;;;;;;;6.97;3.00;;;13.00;99.90;;;;;;5060810;28;20187;-47
2023/09/30 01:14:28;;;;;;;8.60;2.47;;;13.00;99.90;;;;;;5066019;28;20198;-45
2023/09/30 01:16:56;;;;;;;8.07;2.70;;;13.00;99.90;;;;;;5028677;28;20221;-43
2023/09/30 01:19:24;;;;;;;15.83;3.33;;;13.00;99.90;;;;;;5052855;28;20252;-45
2023/09/30 01:21:56;;;;;;;11.97;2.87;;;13.00;99.90;;;;;;5060151;28;20193;-46
2023/09/30 01:24:23;;;;;;;10.23;3.20;;;13.00;99.90;;;;;;5059581;28;20221;-43
2023/09/30 01:26:50;;;;;;;8.23;3.03;;;13.00;99.90;;;;;;5061599;28;20209;-45
2023/09/30 01:29:17;;;;;;;8.73;2.93;;;13.10;99.90;;;;;;5066771;28;20197;-44
2023/09/30 01:31:47;;;;;;;14.43;3.90;;;13.10;99.90;;;;;;5023985;28;20214;-49
2023/09/30 01:34:15;;;;;;;11.20;3.10;;;13.10;99.90;;;;;;5061553;28;20194;-46
2023/09/30 01:36:41;;;;;;;13.67;2.60;;;13.10;99.90;;;;;;5068857;28;20191;-46
2023/09/30 01:39:10;;;;;;;9.73;2.73;;;13.10;99.90;;;;;;5066800;28;20222;-44
2023/09/30 01:41:37;;;;;;;7.13;2.50;;;13.10;99.90;;;;;;5069385;28;20289;-44
2023/09/30 01:44:07;;;;;;;11.00;2.40;;;13.10;99.90;;;;;;5065168;28;20215;-47
2023/09/30 01:46:34;;;;;;;10.17;3.03;;;13.10;99.90;;;;;;5027885;28;20302;-48
2023/09/30 01:49:01;;;;;;;11.70;2.67;;;13.10;99.90;;;;;;5064870;28;20244;-44
2023/09/30 01:51:30;;;;;;;11.53;2.60;;;13.10;99.90;;;;;;5066497;28;20195;-46
2023/09/30 01:53:58;;;;;;;10.00;3.03;;;13.10;99.90;;;;;;5065581;28;20218;-46
2023/09/30 01:56:26;;;;;;;10.43;2.33;;;13.10;99.90;;;;;;5064998;28;20275;-50
2023/09/30 01:58:54;;;;;;;10.37;2.90;;;13.10;99.90;;;;;;5071028;28;20287;-43
2023/09/30 02:01:21;;;;;;;9.43;2.83;;;13.10;99.90;;;;;;5041296;28;21203;-46
2023/09/30 02:03:49;;;;;;;8.30;2.67;;;13.10;99.90;;;;;;5062428;28;20279;-47
2023/09/30 02:06:16;;;;;;;9.13;2.60;;;13.10;99.90;;;;;;5069349;28;20265;-45
2023/09/30 02:08:44;;;;;;;7.67;3.13;;;13.00;99.90;;;;;;5073359;28;20221;-47
2023/09/30 02:11:13;;;;;;;9.83;2.80;;;13.00;99.90;;;;;;5069124;28;20195;-45
2023/09/30 02:13:42;;;;;;;12.63;2.90;;;13.00;99.90;;;;;;5070857;28;20661;-46
2023/09/30 02:16:13;;;;;;;10.40;2.77;;;13.00;99.90;;;;;;5064725;28;20206;-46
2023/09/30 02:18:41;;;;;;;8.97;2.87;;;13.00;99.90;;;;;;5030847;28;20210;-45
2023/09/30 02:21:08;;;;;;;5.97;2.53;;;13.00;99.90;;;;;;5066520;28;20629;-44
2023/09/30 02:23:35;;;;;;;14.20;3.50;;;12.90;99.90;;;;;;5068993;28;20785;-48
2023/09/30 02:26:02;;;;;;;7.80;3.23;;;12.90;99.90;;;;;;5066020;28;20194;-46
2023/09/30 02:28:32;;;;;;;10.97;3.00;;;12.90;99.90;;;;;;5068527;28;20202;-47
2023/09/30 02:31:00;;;;;;;8.93;2.70;;;12.90;99.90;;;;;;5068567;28;20237;-43
2023/09/30 02:33:27;;;;;;;9.00;3.67;;;12.90;99.90;;;;;;5037852;28;20201;-48
2023/09/30 02:35:54;;;;;;;14.23;2.70;;;12.80;99.90;;;;;;5067389;28;20256;-45
2023/09/30 02:38:21;;;;;;;13.67;3.17;;;12.80;99.90;;;;;;5065368;28;21014;-45
2023/09/30 02:40:49;;;;;;;12.50;3.00;;;12.80;99.90;;;;;;5063555;28;20893;-47
2023/09/30 02:43:17;;;;;;;11.10;3.03;;;12.80;99.90;;;;;;5063624;28;20214;-45
2023/09/30 02:45:45;;;;;;;8.93;2.83;;;12.80;99.90;;;;;;5063233;28;20639;-47
2023/09/30 02:48:13;;;;;;;12.27;2.73;;;12.80;99.90;;;;;;5035906;28;20225;-44
2023/09/30 02:50:44;;;;;;;11.13;3.30;;;12.80;99.90;;;;;;5059110;28;20186;-51
2023/09/30 02:53:11;;;;;;;13.03;3.27;;;12.80;99.90;;;;;;5061819;28;20214;-43
2023/09/30 02:55:37;;;;;;;10.37;2.93;;;12.80;99.90;;;;;;5064962;28;20772;-48
2023/09/30 02:58:04;;;;;;;9.63;3.17;;;12.80;99.90;;;;;;5063848;28;20223;-43
2023/09/30 03:00:32;;;;;;;13.33;3.10;;;12.80;99.90;;;;;;5067747;28;20684;-44
2023/09/30 03:03:01;;;;;;;9.43;2.70;;;12.70;99.90;;;;;;5055291;28;20318;-43
2023/09/30 03:05:33;;;;;;;10.93;3.17;;;12.80;99.90;;;;;;5050701;28;20206;-48
2023/09/30 03:08:00;;;;;;;10.03;3.23;;;12.80;99.90;;;;;;5063709;28;20267;-43
2023/09/30 03:10:26;;;;;;;9.40;2.70;;;12.70;99.90;;;;;;5066164;28;20251;-47
2023/09/30 03:12:54;;;;;;;12.23;3.60;;;12.70;99.90;;;;;;5066328;28;20248;-46
2023/09/30 03:15:21;;;;;;;15.67;3.73;;;12.70;99.90;;;;;;5062241;28;20281;-46
2023/09/30 03:17:49;;;;;;;10.30;3.37;;;12.70;99.90;;;;;;5067916;28;20230;-44
2023/09/30 03:20:20;;;;;;;11.17;3.00;;;12.70;99.90;;;;;;5037386;28;20191;-46
2023/09/30 03:22:49;;;;;;;15.27;3.33;;;12.70;99.90;;;;;;5065127;28;20256;-47
2023/09/30 03:25:18;;;;;;;15.33;3.60;;;12.70;99.90;;;;;;5062057;28;20289;-50
2023/09/30 03:27:46;;;;;;;11.63;3.30;;;12.70;99.90;;;;;;5056221;28;20914;-47
2023/09/30 03:30:15;;;;;;;11.87;4.17;;;12.60;99.90;;;;;;5061300;28;20198;-47
2023/09/30 03:32:41;;;;;;;10.73;3.83;;;12.60;99.90;;;;;;5063189;28;20195;-47
2023/09/30 03:35:14;;;;;;;9.70;2.80;;;12.60;99.90;;;;;;5030703;28;20203;-43
2023/09/30 03:37:42;;;;;;;8.73;3.60;;;12.60;99.90;;;;;;5066022;28;20218;-45
2023/09/30 03:40:14;;;;;;;15.37;3.50;;;12.60;99.90;;;;;;5062125;28;20206;-45
2023/09/30 03:42:43;;;;;;;8.50;2.93;;;12.60;99.90;;;;;;5067267;28;20205;-46
2023/09/30 03:45:11;;;;;;;11.17;3.00;;;12.60;99.90;;;;;;5059792;28;20234;-43
2023/09/30 03:47:40;;;;;;;13.80;4.07;;;12.60;99.90;;;;;;5065659;28;20680;-47
2023/09/30 03:50:12;;;;;;;10.47;3.00;;;12.60;99.90;;;;;;5036668;28;20217;-43
2023/09/30 03:52:39;;;;;;;13.47;3.70;;;12.50;99.90;;;;;;5062778;28;20205;-44
2023/09/30 03:55:07;;;;;;;9.13;3.57;;;12.50;99.90;;;;;;5058581;28;20202;-44
2023/09/30 03:57:35;;;;;;;13.03;3.97;;;12.50;99.90;;;;;;5062406;28;20749;-50
2023/09/30 04:00:05;;;;;;;12.63;3.97;;;12.50;99.90;;;;;;5064236;28;20248;-44
2023/09/30 04:02:39;;;;;;;10.60;3.80;;;12.50;99.90;;;;;;5057494;28;20244;-48
2023/09/30 04:05:11;;;;;;;12.80;4.40;;;12.50;99.90;;;;;;5035975;28;20219;-43
2023/09/30 04:07:38;;;;;;;9.43;3.70;;;12.50;99.90;;;;;;5047880;28;20218;-46
2023/09/30 04:10:05;;;;;;;12.50;3.13;;;12.50;99.90;;;;;;5057110;28;20237;-44
2023/09/30 04:12:33;;;;;;;10.10;3.40;;;12.40;99.90;;;;;;5064185;28;20561;-47
2023/09/30 04:15:04;;;;;;;12.30;3.70;;;12.40;99.90;;;;;;5065177;28;20190;-45
2023/09/30 04:17:32;;;;;;;17.10;3.40;;;12.40;99.90;;;;;;5063191;28;20575;-48
2023/09/30 04:19:59;;;;;;;9.83;3.27;;;12.40;99.90;;;;;;5066106;28;20217;-46
2023/09/30 04:22:29;;;;;;;11.23;3.03;;;12.50;99.90;;;;;;5033328;28;20207;-45
2023/09/30 04:24:56;;;;;;;14.77;3.50;;;12.40;99.90;;;;;;5062607;28;20623;-45
2023/09/30 04:27:23;;;;;;;14.27;4.80;;;12.50;99.90;;;;;;5064119;28;20214;-44
2023/09/30 04:29:50;;;;;;;13.37;3.93;;;12.40;99.90;;;;;;5066639;28;20586;-44
2023/09/30 04:32:19;;;;;;;9.07;3.33;;;12.40;99.90;;;;;;5062657;28;20419;-45
2023/09/30 04:34:46;;;;;;;14.40;3.53;;;12.40;99.90;;;;;;5064772;28;20199;-45
2023/09/30 04:37:13;;;;;;;11.07;3.93;;;12.40;99.90;;;;;;5031646;28;20244;-46
2023/09/30 04:39:40;;;;;;;6.97;2.80;;;12.40;99.90;;;;;;5063557;28;20645;-43
2023/09/30 04:42:10;;;;;;;10.77;3.43;;;12.40;99.90;;;;;;5062785;28;20328;-48
2023/09/30 04:44:38;;;;;;;12.17;3.43;;;12.40;99.90;;;;;;5064523;28;20213;-43
2023/09/30 04:47:05;;;;;;;9.93;3.40;;;12.40;99.90;;;;;;5065026;28;20276;-48
2023/09/30 04:49:33;;;;;;;8.67;3.10;;;12.40;99.90;;;;;;5067345;28;20672;-43
2023/09/30 04:52:00;;;;;;;9.87;3.27;;;12.40;99.90;;;;;;5055609;28;20248;-45
2023/09/30 04:54:29;;;;;;;12.40;3.07;;;12.40;99.90;;;;;;5056129;28;20180;-44
2023/09/30 04:56:56;;;;;;;13.83;4.60;;;12.40;99.90;;;;;;5066942;28;20218;-48
2023/09/30 04:59:24;;;;;;;21.10;4.23;;;12.40;99.90;;;;;;5065915;28;20286;-45
2023/09/30 05:01:51;;;;;;;13.33;3.77;;;12.40;99.90;;;;;;5063705;28;20684;-43
2023/09/30 05:04:18;;;;;;;9.50;3.07;;;12.40;99.90;;;;;;5062704;28;20222;-43
2023/09/30 05:06:46;;;;;;;17.60;3.77;;;12.40;99.90;;;;;;5067830;28;20276;-44
2023/09/30 05:09:13;;;;;;;12.70;3.00;;;12.30;99.90;;;;;;5036247;28;20206;-43
2023/09/30 05:11:40;;;;;;;7.67;3.73;;;12.30;99.90;;;;;;5064938;28;20357;-43
2023/09/30 05:14:07;;;;;;;12.93;2.83;;;12.40;99.90;;;;;;5060233;28;20243;-46
2023/09/30 05:16:34;;;;;;;11.00;3.07;;;12.40;99.90;;;;;;5063109;28;20279;-46
2023/09/30 05:19:00;;;;;;;11.93;3.30;;;12.30;99.90;;;;;;5062825;28;20199;-49
2023/09/30 05:21:27;;;;;;;7.40;3.70;;;12.40;99.90;;;;;;5063645;28;20183;-43
2023/09/30 05:23:56;;;;;;;12.27;2.90;;;12.40;99.90;;;;;;5060685;28;20228;-45
2023/09/30 05:26:23;;;;;;;15.33;3.43;;;12.40;99.90;;;;;;5045869;28;20210;-43
2023/09/30 05:28:50;;;;;;;11.27;3.13;;;12.40;99.90;;;;;;5063461;28;20214;-43
2023/09/30 05:31:17;;;;;;;10.47;3.57;;;12.40;99.90;;;;;;5059135;28;20941;-43
2023/09/30 05:33:44;;;;;;;12.07;3.27;;;12.40;99.90;;;;;;5063473;28;20256;-43
2023/09/30 05:36:13;;;;;;;9.67;3.07;;;12.40;99.90;;;;;;5059355;28;20191;-48
2023/09/30 05:38:40;;;;;;;8.77;3.10;;;12.40;99.90;;;;;;5060455;28;20587;-46
2023/09/30 05:41:08;;;;;;;17.47;3.27;;;12.40;99.90;;;;;;5028417;28;20918;-45
2023/09/30 05:43:35;;;;;;;10.00;3.17;;;12.40;99.90;;;;;;5062509;28;20199;-46
2023/09/30 05:46:02;;;;;;;9.43;2.70;;;12.40;99.90;;;;;;5067596;28;20585;-48
2023/09/30 05:48:29;;;;;;;13.77;4.00;;;12.40;99.90;;;;;;5055052;28;20214;-45
2023/09/30 05:50:56;;;;;;;8.63;3.63;;;12.40;99.90;;;;;;5065730;28;20202;-46
2023/09/30 05:53:24;;;;;;;17.40;3.73;;;12.40;99.90;;;;;;5063494;28;20190;-45
2023/09/30 05:55:51;;;;;;;12.20;3.87;;;12.50;99.90;;;;;;5068614;28;20191;-46
2023/09/30 05:58:20;;;;;;;12.73;3.60;;;12.50;99.90;;;;;;5035006;28;20221;-48
2023/09/30 06:00:47;;;;;;;11.50;3.53;;;12.50;99.90;;;;;;5074047;28;20249;-50
2023/09/30 06:03:14;;;;;;;11.50;3.40;;;12.50;99.90;;;;;;5056664;28;20199;-46
2023/09/30 06:05:41;;;;;;;13.03;4.03;;;12.50;99.90;;;;;;5072344;28;20225;-45
2023/09/30 06:08:10;;;;;;;13.13;3.93;;;12.50;99.90;;;;;;5068763;28;20246;-48
2023/09/30 06:10:38;;;;;;;11.53;3.27;;;12.50;99.90;;;;;;5070307;28;20203;-43
2023/09/30 06:13:05;;;;;;;12.30;3.43;;;12.50;99.90;;;;;;5035761;28;20293;-47
2023/09/30 06:15:34;;;;;;;8.53;3.47;;;12.50;99.90;;;;;;5068811;28;20202;-48
2023/09/30 06:18:01;;;;;;;11.53;3.50;;;12.50;99.90;;;;;;5061606;28;20621;-50
2023/09/30 06:20:30;;;;;;;11.43;3.57;;;12.50;99.90;;;;;;5062225;28;20259;-48
2023/09/30 06:22:57;;;;;;;13.20;3.73;;;12.60;99.90;;;;;;5070719;28;20198;-50
2023/09/30 06:25:24;;;;;;;10.97;3.53;;;12.60;99.90;;;;;;5067311;28;20224;-44
2023/09/30 06:27:51;;;;;;;9.43;3.73;;;12.60;99.90;;;;;;5038415;28;20562;-44
2023/09/30 06:30:20;;;;;;;7.23;3.63;;;12.60;99.90;;;;;;5063405;28;20186;-44
2023/09/30 06:32:48;;;;;;;6.73;3.27;;;12.60;99.90;;;;;;5066997;28;20195;-48
2023/09/30 06:35:15;;;;;;;9.93;3.67;;;12.60;99.90;;;;;;5054981;28;20201;-45
2023/09/30 06:37:45;;;;;;;10.37;3.33;;;12.60;99.90;;;;;;5067991;28;20214;-46
2023/09/30 06:40:12;;;;;;;12.83;3.50;;;12.70;99.90;;;;;;5063908;28;20199;-46
2023/09/30 06:42:40;;;;;;;11.70;3.33;;;12.70;99.90;;;;;;5066336;28;20199;-47
2023/09/30 06:45:09;;;;;;;10.53;3.67;;;12.70;99.90;;;;;;5037953;28;20238;-47
2023/09/30 06:47:37;;;;;;;14.83;3.40;;;12.70;99.90;;;;;;5065631;28;20221;-50
2023/09/30 06:50:12;;;;;;;13.53;3.83;;;12.70;99.90;;;;;;5053034;28;20268;-48
2023/09/30 06:52:40;;;;;;;12.53;3.93;;;12.80;99.90;;;;;;5064870;28;20294;-47
2023/09/30 06:55:08;;;;;;;9.87;3.33;;;12.80;99.90;;;;;;5060784;28;20201;-47
2023/09/30 06:57:37;;;;;;;11.13;3.63;;;12.80;99.90;;;;;;5060677;28;20323;-43
2023/09/30 07:00:09;;;;;;;6.23;3.17;;;12.90;99.90;;;;;;5041784;28;20214;-47
2023/09/30 07:02:35;;;;;;;16.80;3.63;;;12.90;99.90;;;;;;5064882;28;20229;-46
2023/09/30 07:05:04;;;;;;;10.03;3.33;;;13.00;99.90;;;;;;5060203;28;20704;-47
2023/09/30 07:07:32;;;;;;;12.10;3.07;;;13.00;99.90;;;;;;5053624;28;20214;-45
2023/09/30 07:09:59;;;;;;;7.77;2.97;;;13.10;99.90;;;;;;5063222;28;20733;-47
2023/09/30 07:12:25;;;;;;;10.13;3.33;;;13.10;99.90;;;;;;5064140;28;20248;-47
2023/09/30 07:14:52;;;;;;;9.07;3.03;;;13.20;99.90;;;;;;5039320;28;20202;-48
2023/09/30 07:17:18;;;;;;;9.90;3.13;;;13.30;99.90;;;;;;5060907;28;20223;-45
2023/09/30 07:19:45;;;;;;;10.17;3.20;;;13.30;99.90;;;;;;5065491;28;20206;-43
2023/09/30 07:22:13;;;;;;;10.83;3.20;;;13.40;99.90;;;;;;5050500;28;20227;-45
2023/09/30 07:24:41;;;;;;;5.60;2.57;;;13.40;99.90;;;;;;5067200;28;20214;-46
2023/09/30 07:27:08;;;;;;;10.60;3.13;;;13.50;99.90;;;;;;5061238;28;20257;-46
2023/09/30 07:29:35;;;;;;;8.93;2.80;;;13.50;99.90;;;;;;5036256;28;20205;-46
2023/09/30 07:32:02;;;;;;;6.20;2.90;;;13.60;99.90;;;;;;5066526;28;20198;-49
2023/09/30 07:34:29;;;;;;;7.60;2.40;;;13.60;99.90;;;;;;5064556;28;20218;-44
2023/09/30 07:36:56;;;;;;;10.93;2.77;;;13.70;99.90;;;;;;5056178;28;20207;-47
2023/09/30 07:39:23;;;;;;;7.07;3.20;;;13.80;99.90;;;;;;5062994;28;20683;-43
2023/09/30 07:41:51;;;;;;;8.33;2.87;;;13.80;99.90;;;;;;5065032;28;20720;-43
2023/09/30 07:44:18;;;;;;;11.00;2.93;;;13.90;99.90;;;;;;5065497;28;20326;-44
2023/09/30 07:46:46;;;;;;;8.23;2.60;;;13.90;99.90;;;;;;5039242;28;21184;-43
2023/09/30 07:49:13;;;;;;;9.40;2.77;;;14.10;99.90;;;;;;5067031;28;20278;-48
2023/09/30 07:51:40;;;;;;;13.20;2.90;;;14.10;99.90;;;;;;5058858;28;20205;-43
2023/09/30 07:54:07;;;;;;;9.17;2.60;;;14.20;99.90;;;;;;5063486;28;20564;-49
2023/09/30 07:56:34;;;;;;;7.47;2.17;;;14.20;99.90;;;;;;5066998;28;20205;-44
2023/09/30 07:59:03;;;;;;;8.93;2.40;;;14.30;99.90;;;;;;5062386;28;20206;-47
2023/09/30 08:01:30;;;;;;;10.40;2.63;;;14.40;99.90;;;;;;5038309;28;21216;-43
2023/09/30 08:03:57;;;;;;;12.17;2.83;;;14.50;99.90;;;;;;5068567;28;20203;-49
2023/09/30 08:06:23;;;;;;;9.90;2.13;;;14.50;99.90;;;;;;5051621;28;20214;-47
2023/09/30 08:08:50;;;;;;;6.00;2.50;;;14.60;99.90;;;;;;5062625;28;20241;-45
2023/09/30 08:11:20;;;;;;;11.00;2.50;;;14.60;99.90;;;;;;5058496;28;20198;-46
2023/09/30 08:13:47;;;;;;;13.80;2.63;;;14.70;99.90;;;;;;5062705;28;20278;-46
2023/09/30 08:16:16;;;;;;;13.40;2.97;;;14.70;99.90;;;;;;5027030;28;20783;-43
2023/09/30 08:18:43;;;;;;;10.97;2.43;;;14.90;99.90;;;;;;5061883;28;20648;-46
2023/09/30 08:21:11;;;;;;;7.30;1.87;;;14.90;99.90;;;;;;5062179;28;20187;-43
2023/09/30 08:23:38;;;;;;;9.13;2.20;;;15.00;99.90;;;;;;5055567;28;20289;-46
2023/09/30 08:26:05;;;;;;;8.97;3.07;;;15.10;99.90;;;;;;5060651;28;20249;-44
2023/09/30 08:28:32;;;;;;;9.37;2.00;;;15.20;99.90;;;;;;5062822;28;20259;-45
2023/09/30 08:31:04;;;;;;;10.67;1.80;;;15.20;99.90;;;;;;5062456;28;20521;-46
2023/09/30 08:33:33;;;;;;;7.80;2.10;;;15.20;99.90;;;;;;5024330;28;20211;-44
2023/09/30 08:36:06;;;;;;;7.87;2.03;;;15.20;99.90;;;;;;5057394;28;20248;-47
2023/09/30 08:38:34;;;;;;;9.87;2.10;;;15.20;99.90;;;;;;5054284;28;20754;-43
2023/09/30 08:41:02;;;;;;;9.27;3.07;;;15.30;99.90;;;;;;5059849;28;20198;-47
2023/09/30 08:43:31;;;;;;;8.53;2.40;;;15.30;99.90;;;;;;5060326;28;20200;-44
2023/09/30 08:45:59;;;;;;;13.23;2.37;;;15.40;99.90;;;;;;5062304;28;20254;-42
2023/09/30 08:48:28;;;;;;;7.63;2.03;;;15.40;99.90;;;;;;5033997;28;20227;-47
2023/09/30 08:50:57;;;;;;;6.90;2.10;;;15.50;99.90;;;;;;5062484;28;20240;-46
2023/09/30 08:53:24;;;;;;;10.37;2.77;;;15.60;99.90;;;;;;5062957;28;20194;-47
2023/09/30 08:55:55;;;;;;;10.03;2.47;;;15.70;99.90;;;;;;5043078;28;20198;-44
2023/09/30 08:58:25;;;;;;;4.97;1.80;;;15.80;99.90;;;;;;5064074;28;20302;-45
2023/09/30 09:00:52;;;;;;;7.33;1.80;;;15.80;99.90;;;;;;5060936;28;20194;-45
2023/09/30 09:03:20;;;;;;;10.20;2.33;;;15.90;99.90;;;;;;5066349;28;20203;-44
2023/09/30 09:05:47;;;;;;;8.57;2.20;;;16.00;99.90;;;;;;5034820;28;20305;-46
2023/09/30 09:08:16;;;;;;;6.23;1.73;;;16.00;99.90;;;;;;5065848;28;20704;-46
2023/09/30 09:10:57;;;;;;;9.20;2.27;;;16.10;99.90;;;;;;5055071;28;20202;-44
2023/09/30 09:13:24;;;;;;;7.07;1.90;;;16.20;99.90;;;;;;5066439;28;20263;-45
2023/09/30 09:16:06;;;;;;;8.03;1.83;;;16.30;99.90;;;;;;5061882;28;20222;-46
2023/09/30 09:18:33;;;;;;;5.30;1.53;;;16.30;99.90;;;;;;5063520;28;20271;-44
2023/09/30 09:21:11;;;;;;;8.33;1.63;;;16.30;99.90;;;;;;5030340;28;20294;-48
2023/09/30 09:23:43;;;;;;;11.80;2.27;;;16.40;99.90;;;;;;5064640;28;20302;-45
2023/09/30 09:26:12;;;;;;;9.43;2.07;;;16.50;99.90;;;;;;5055233;28;20218;-48
2023/09/30 09:28:39;;;;;;;5.60;1.40;;;16.50;99.90;;;;;;5064183;28;20214;-44
2023/09/30 09:31:22;;;;;;;8.67;1.37;;;16.60;99.90;;;;;;5063218;28;20194;-44
2023/09/30 09:33:49;;;;;;;8.83;1.77;;;16.60;99.90;;;;;;5064864;28;20209;-45
2023/09/30 09:36:16;;;;;;;6.73;1.97;;;16.70;99.90;;;;;;5038832;28;20213;-46
2023/09/30 09:38:53;;;;;;;8.37;2.00;;;16.70;99.90;;;;;;5065901;28;20244;-44
2023/09/30 09:41:20;;;;;;;6.30;2.23;;;16.80;99.90;;;;;;5057284;28;20210;-45
2023/09/30 09:43:50;;;;;;;7.93;1.50;;;16.90;99.90;;;;;;5052198;28;20198;-46
2023/09/30 09:46:18;;;;;;;8.27;1.83;;;16.90;99.90;;;;;;5067024;28;20210;-43
2023/09/30 09:48:47;;;;;;;8.97;2.33;;;17.00;99.90;;;;;;5070163;28;20327;-45
2023/09/30 09:51:14;;;;;;;7.17;1.70;;;17.00;99.90;;;;;;5044150;28;20688;-44
2023/09/30 09:53:41;;;;;;;9.70;1.73;;;17.10;99.90;;;;;;5072115;28;20681;-45
2023/09/30 09:56:11;;;;;;;9.37;2.30;;;17.10;99.90;;;;;;5062535;28;20210;-44
2023/09/30 09:58:41;;;;;;;7.63;2.13;;;17.10;99.90;;;;;;5064364;28;20700;-46
2023/09/30 10:01:09;;;;;;;6.37;1.90;;;17.20;99.90;;;;;;5066727;28;20198;-44
2023/09/30 10:03:37;;;;;;;8.97;1.80;;;17.20;99.90;;;;;;5067229;28;20910;-44
2023/09/30 10:06:04;;;;;;;11.57;1.90;;;17.20;99.90;;;;;;5059412;28;20672;-43
2023/09/30 10:08:34;;;;;;;8.37;1.90;;;17.20;99.90;;;;;;5049429;28;20973;-45
2023/09/30 10:11:02;;;;;;;10.00;2.00;;;17.20;99.90;;;;;;5066432;28;20618;-43
2023/09/30 10:13:52;;;;;;;10.93;1.87;;;17.20;99.90;;;;;;5055163;28;20203;-44
2023/09/30 10:16:51;;;;;;;6.40;1.80;;;17.20;99.90;;;;;;5059955;28;20696;-45
2023/09/30 10:19:22;;;;;;;7.47;1.60;;;17.30;99.90;;;;;;5059526;28;20273;-42
2023/09/30 10:22:24;;;;;;;7.10;1.83;;;17.40;99.90;;;;;;5068067;28;20278;-45
2023/09/30 10:24:56;;;;;;;6.87;2.30;;;17.50;99.90;;;;;;5059870;28;20552;-47
2023/09/30 10:27:44;;;;;;;9.07;1.70;;;17.50;99.90;;;;;;5053406;28;20805;-48
2023/09/30 10:30:16;;;;;;;5.80;1.70;;;17.60;99.90;;;;;;5058940;28;20840;-43
2023/09/30 10:33:09;;;;;;;7.83;1.87;;;17.60;99.90;;;;;;5063157;28;20203;-47
2023/09/30 10:35:49;;;;;;;4.17;1.60;;;17.60;99.90;;;;;;5064194;28;21035;-49
2023/09/30 10:38:37;;;;;;;8.10;1.53;;;17.70;99.90;;;;;;5020655;28;20234;-46
2023/09/30 10:41:05;;;;;;;5.13;1.80;;;17.70;99.90;;;;;;5059873;28;20203;-42
2023/09/30 10:43:32;;;;;;;7.90;1.70;;;17.70;99.90;;;;;;5056719;28;20195;-45
2023/09/30 10:46:01;;;;;;;6.70;2.10;;;17.80;99.90;;;;;;5072215;28;20906;-43
2023/09/30 10:48:37;;;;;;;8.40;2.10;;;17.80;99.90;;;;;;5069227;28;20875;-44
2023/09/30 10:51:15;;;;;;;6.60;1.77;;;17.80;99.90;;;;;;5069451;28;20206;-42
2023/09/30 10:53:47;;;;;;;6.67;1.83;;;17.90;99.90;;;;;;5024069;28;20207;-45
2023/09/30 10:56:14;;;;;;;8.20;1.87;;;17.90;99.90;;;;;;5065501;28;20201;-43
2023/09/30 10:58:42;;;;;;;6.90;1.57;;;17.80;99.90;;;;;;5057700;28;20284;-44
2023/09/30 11:01:11;;;;;;;6.10;1.40;;;17.90;99.90;;;;;;5067239;28;20294;-47
2023/09/30 11:03:37;;;;;;;11.50;1.80;;;17.90;99.90;;;;;;5067577;28;20202;-46
2023/09/30 11:06:04;;;;;;;7.80;1.70;;;17.90;99.90;;;;;;5069900;28;20272;-44
2023/09/30 11:08:33;;;;;;;7.63;1.97;;;18.00;99.90;;;;;;5039794;28;21085;-48
2023/09/30 11:11:01;;;;;;;4.43;1.50;;;18.00;99.90;;;;;;5071568;28;20275;-46
2023/09/30 11:13:34;;;;;;;7.23;1.90;;;18.10;99.90;;;;;;5046013;28;20386;-43
2023/09/30 11:16:02;;;;;;;5.23;1.47;;;18.10;99.90;;;;;;5064468;28;20730;-45
2023/09/30 11:18:31;;;;;;;8.53;1.80;;;18.10;99.90;;;;;;5069565;28;20692;-44
2023/09/30 11:21:05;;;;;;;6.80;1.83;;;18.00;99.90;;;;;;5070719;28;20190;-46
2023/09/30 11:23:33;;;;;;;5.80;1.53;;;17.90;99.90;;;;;;5051761;28;20669;-42
2023/09/30 11:26:00;;;;;;;6.83;1.60;;;17.90;99.90;;;;;;5054024;28;20317;-46
2023/09/30 11:28:35;;;;;;;3.57;1.60;;;18.00;99.90;;;;;;5053764;28;20219;-46
2023/09/30 11:31:03;;;;;;;4.90;1.43;;;18.00;99.90;;;;;;5069784;28;20195;-46
2023/09/30 11:33:33;;;;;;;7.00;2.03;;;18.00;99.90;;;;;;5071610;28;20198;-45
2023/09/30 11:36:03;;;;;;;4.10;1.50;;;18.00;99.90;;;;;;5071741;28;20260;-45
2023/09/30 11:38:29;;;;;;;4.33;1.30;;;18.00;99.90;;;;;;5069769;28;20263;-42
2023/09/30 11:41:02;;;;;;;3.90;1.57;;;18.00;99.90;;;;;;5041215;28;20260;-48
2023/09/30 11:43:29;;;;;;;5.63;1.30;;;18.00;99.90;;;;;;5049144;28;20202;-42
2023/09/30 11:46:06;;;;;;;11.30;1.83;;;17.90;99.90;;;;;;5063061;28;20238;-47
2023/09/30 11:48:35;;;;;;;9.10;1.57;;;18.00;99.90;;;;;;5059430;28;20238;-47
2023/09/30 11:51:03;;;;;;;11.73;1.80;;;18.00;99.90;;;;;;5062857;28;20204;-49
2023/09/30 11:53:31;;;;;;;4.97;1.50;;;18.20;99.90;;;;;;5060654;28;20197;-45
2023/09/30 11:55:58;;;;;;;8.47;1.90;;;18.30;99.90;;;;;;5033750;28;21102;-43
2023/09/30 11:58:27;;;;;;;5.67;1.43;;;18.30;99.90;;;;;;5060429;28;20306;-43
2023/09/30 12:00:57;;;;;;;4.50;1.10;;;18.30;99.90;;;;;;5056634;28;20210;-46
2023/09/30 12:03:25;;;;;;;4.77;1.77;;;18.30;99.90;;;;;;5064697;28;20197;-43
2023/09/30 12:05:55;;;;;;;5.30;1.50;;;18.40;99.90;;;;;;5062667;28;20194;-48
2023/09/30 12:08:22;;;;;;;3.10;1.00;;;18.40;99.90;;;;;;5066735;28;20289;-43
2023/09/30 12:10:49;;;;;;;5.47;1.40;;;18.40;99.90;;;;;;5063045;28;20272;-49
2023/09/30 12:13:16;;;;;;;5.90;1.30;;;18.30;99.90;;;;;;5041676;28;20611;-46
2023/09/30 12:15:44;;;;;;;4.83;1.73;;;18.40;99.90;;;;;;5055121;28;20938;-46
2023/09/30 12:18:13;;;;;;;5.13;1.60;;;18.40;99.90;;;;;;5067771;28;20245;-48
2023/09/30 12:20:41;;;;;;;5.97;1.63;;;18.40;99.90;;;;;;5063116;28;20224;-44
2023/09/30 12:23:10;;;;;;;6.97;1.20;;;18.50;99.90;;;;;;5069543;28;20285;-49
2023/09/30 12:25:37;;;;;;;4.80;1.67;;;18.60;99.90;;;;;;5066285;28;20190;-47
2023/09/30 12:28:05;;;;;;;11.03;2.67;;;18.70;99.90;;;;;;5038379;28;20233;-44
2023/09/30 12:30:32;;;;;;;7.57;1.23;;;18.80;99.90;;;;;;5055641;28;20257;-46
2023/09/30 12:32:59;;;;;;;4.93;1.30;;;18.80;99.90;;;;;;5063648;28;20226;-47
2023/09/30 12:35:26;;;;;;;5.03;1.40;;;18.70;99.90;;;;;;5068706;28;20645;-43
2023/09/30 12:37:53;;;;;;;6.73;1.73;;;18.70;99.90;;;;;;5064167;28;20206;-44
2023/09/30 12:40:21;;;;;;;2.87;1.37;;;18.70;99.90;;;;;;5067938;28;20715;-45
2023/09/30 12:42:48;;;;;;;6.50;1.77;;;18.50;99.90;;;;;;5032684;28;20206;-46
2023/09/30 12:45:16;;;;;;;2.80;1.60;;;18.40;99.90;;;;;;5056865;28;20248;-45
2023/09/30 12:47:43;;;;;;;6.20;1.73;;;18.50;99.90;;;;;;5063313;28;20230;-43
2023/09/30 12:50:11;;;;;;;3.07;1.50;;;18.50;99.90;;;;;;5068611;28;20207;-47